createdAt,value
2019-03-01T00:01:59.459Z,106.97
2019-03-01T00:04:31.163Z,94.63
2019-03-01T00:07:19.263Z,107.47
2019-03-01T00:10:13.279Z,82.87
2019-03-01T00:13:21.316Z,104.17
2019-03-01T00:16:19.622Z,85.10
2019-03-01T00:19:17.112Z,102.40
2019-03-01T00:21:54.521Z,97.23
2019-03-01T00:24:47.891Z,91.83
2019-03-01T00:27:51.265Z,95.07
2019-03-01T00:30:54.902Z,117.23
2019-03-01T00:33:53.831Z,110.90
2019-03-01T00:36:48.351Z,126.97
2019-03-01T00:39:37.656Z,114.97
2019-03-01T00:42:27.876Z,109.60
2019-03-01T00:44:56.493Z,93.17
2019-03-01T00:47:25.050Z,106.93
2019-03-01T00:49:56.876Z,90.33
2019-03-01T00:52:28.155Z,101.57
2019-03-01T00:54:56.768Z,74.87
2019-03-01T00:57:28.025Z,97.73
2019-03-01T00:59:59.623Z,93.27
2019-03-01T01:02:31.309Z,95.67
2019-03-01T01:04:59.950Z,76.77
2019-03-01T01:07:31.562Z,85.10
2019-03-01T01:10:03.781Z,91.20
2019-03-01T01:12:35.322Z,100.50
2019-03-01T01:15:08.248Z,91.53
2019-03-01T01:17:37.378Z,93.57
2019-03-01T01:20:10.313Z,92.07
2019-03-01T01:22:41.567Z,90.47
2019-03-01T01:25:10.180Z,74.33
2019-03-01T01:27:41.102Z,75.77
2019-03-01T01:30:12.867Z,86.07
2019-03-01T01:32:44.558Z,74.50
2019-03-01T01:35:17.068Z,73.50
2019-03-01T01:37:45.946Z,64.27
2019-03-01T01:40:17.295Z,75.47
2019-03-01T01:42:49.168Z,65.73
2019-03-01T01:45:20.989Z,79.57
2019-03-01T01:47:50.379Z,80.07
2019-03-01T01:50:21.781Z,65.13
2019-03-01T01:52:53.475Z,73.40
2019-03-01T01:55:25.320Z,68.07
2019-03-01T01:57:53.929Z,71.90
2019-03-01T02:00:25.388Z,70.13
2019-03-01T02:02:54.269Z,69.97
2019-03-01T02:05:25.872Z,58.83
2019-03-01T02:07:54.542Z,63.40
2019-03-01T02:10:26.328Z,69.20
2019-03-01T02:12:57.702Z,69.93
2019-03-01T02:15:29.395Z,59.77
2019-03-01T02:17:58.110Z,79.37
2019-03-01T02:20:29.585Z,79.07
2019-03-01T02:22:58.300Z,87.70
2019-03-01T02:25:29.919Z,73.83
2019-03-01T02:27:58.602Z,80.17
2019-03-01T02:30:38.503Z,83.73
2019-03-01T02:33:07.103Z,94.23
2019-03-01T02:35:41.561Z,95.20
2019-03-01T02:38:10.145Z,91.47
2019-03-01T02:40:38.802Z,70.40
2019-03-01T02:43:07.523Z,94.40
2019-03-01T02:45:36.227Z,73.13
2019-03-01T02:48:05.561Z,74.17
2019-03-01T02:50:39.834Z,68.27
2019-03-01T02:53:11.628Z,72.37
2019-03-01T02:55:43.518Z,70.77
2019-03-01T02:58:12.135Z,67.60
2019-03-01T03:00:40.946Z,85.67
2019-03-01T03:03:12.836Z,66.40
2019-03-01T03:05:45.950Z,77.90
2019-03-01T03:08:17.221Z,87.53
2019-03-01T03:10:48.503Z,67.07
2019-03-01T03:13:18.358Z,78.43
2019-03-01T03:15:51.551Z,65.73
2019-03-01T03:18:20.155Z,61.73
2019-03-01T03:20:51.434Z,72.73
2019-03-01T03:23:23.113Z,61.20
2019-03-01T03:25:54.387Z,74.13
2019-03-01T03:28:25.655Z,69.57
2019-03-01T03:30:57.237Z,71.20
2019-03-01T03:33:25.845Z,61.30
2019-03-01T03:35:57.422Z,61.23
2019-03-01T03:38:26.082Z,76.37
2019-03-01T03:40:57.578Z,72.97
2019-03-01T03:43:28.984Z,64.97
2019-03-01T03:46:00.576Z,74.83
2019-03-01T03:48:29.123Z,73.10
2019-03-01T03:51:00.451Z,60.80
2019-03-01T03:53:32.538Z,70.13
2019-03-01T03:56:04.017Z,59.23
2019-03-01T03:58:32.827Z,79.87
2019-03-01T04:01:04.408Z,81.07
2019-03-01T04:03:35.679Z,72.73
2019-03-01T04:06:06.993Z,70.57
2019-03-01T04:08:35.561Z,80.87
2019-03-01T04:11:07.154Z,73.13
2019-03-01T04:13:35.711Z,67.73
2019-03-01T04:16:04.435Z,70.63
2019-03-01T04:18:33.341Z,75.27
2019-03-01T04:21:04.942Z,57.50
2019-03-01T04:23:36.373Z,60.93
2019-03-01T04:26:08.259Z,59.73
2019-03-01T04:28:39.847Z,66.80
2019-03-01T04:31:10.946Z,59.50
2019-03-01T04:33:39.514Z,58.97
2019-03-01T04:36:10.015Z,68.60
2019-03-01T04:38:41.547Z,64.30
2019-03-01T04:41:13.065Z,66.57
2019-03-01T04:43:41.677Z,62.70
2019-03-01T04:46:13.258Z,76.23
2019-03-01T04:48:41.872Z,77.67
2019-03-01T04:51:13.156Z,59.30
2019-03-01T04:53:44.732Z,82.53
2019-03-01T04:56:16.016Z,74.10
2019-03-01T04:58:44.621Z,64.40
2019-03-01T05:01:16.363Z,68.00
2019-03-01T05:03:47.608Z,69.13
2019-03-01T05:06:19.254Z,75.30
2019-03-01T05:08:51.037Z,62.87
2019-03-01T05:11:19.649Z,59.87
2019-03-01T05:13:51.151Z,60.47
2019-03-01T05:16:22.909Z,72.50
2019-03-01T05:18:51.520Z,70.27
2019-03-01T05:21:22.893Z,80.63
2019-03-01T05:23:51.505Z,64.80
2019-03-01T05:26:20.073Z,79.20
2019-03-01T05:28:51.591Z,87.53
2019-03-01T05:31:23.475Z,72.73
2019-03-01T05:33:52.454Z,94.13
2019-03-01T05:36:24.315Z,88.67
2019-03-01T05:38:52.896Z,82.27
2019-03-01T05:41:24.272Z,82.93
2019-03-01T05:43:55.852Z,86.63
2019-03-01T05:46:27.125Z,81.57
2019-03-01T05:48:56.145Z,107.33
2019-03-01T05:51:27.523Z,79.67
2019-03-01T05:53:58.793Z,92.87
2019-03-01T05:56:27.398Z,100.40
2019-03-01T05:59:13.929Z,91.40
2019-03-01T06:02:08.393Z,96.07
2019-03-01T06:04:45.781Z,88.23
2019-03-01T06:07:29.458Z,100.80
2019-03-01T06:10:09.383Z,97.80
2019-03-01T06:12:49.826Z,92.37
2019-03-01T06:15:42.082Z,84.40
2019-03-01T06:18:31.453Z,85.73
2019-03-01T06:21:32.184Z,92.33
2019-03-01T06:24:24.674Z,98.03
2019-03-01T06:27:16.953Z,95.37
2019-03-01T06:30:04.683Z,105.92
2019-03-01T06:32:51.560Z,101.57
2019-03-01T06:35:32.108Z,110.33
2019-03-01T06:38:49.251Z,102.80
2019-03-01T06:41:37.524Z,97.60
2019-03-01T06:44:11.695Z,98.23
2019-03-01T06:47:09.111Z,111.50
2019-03-01T06:49:53.691Z,98.80
2019-03-01T06:52:23.671Z,100.03
2019-03-01T06:54:52.249Z,98.63
2019-03-01T06:57:24.058Z,141.33
2019-03-01T06:59:52.974Z,109.90
2019-03-01T07:02:25.916Z,121.23
2019-03-01T07:05:01.313Z,122.80
2019-03-01T07:07:38.018Z,123.70
2019-03-01T07:10:11.156Z,107.50
2019-03-01T07:12:39.737Z,111.90
2019-03-01T07:15:08.924Z,105.87
2019-03-01T07:17:40.389Z,108.33
2019-03-01T07:20:10.488Z,112.57
2019-03-01T07:22:43.441Z,110.63
2019-03-01T07:25:11.992Z,95.00
2019-03-01T07:27:43.536Z,110.13
2019-03-01T07:30:13.726Z,99.70
2019-03-01T07:32:46.031Z,94.10
2019-03-01T07:35:17.985Z,87.57
2019-03-01T07:37:47.107Z,114.63
2019-03-01T07:40:15.717Z,118.63
2019-03-01T07:42:44.323Z,94.43
2019-03-01T07:45:14.695Z,114.63
2019-03-01T07:47:43.915Z,99.20
2019-03-01T07:50:14.064Z,100.97
2019-03-01T07:52:45.439Z,110.67
2019-03-01T07:55:14.049Z,116.57
2019-03-01T07:57:42.976Z,101.70
2019-03-01T08:00:18.152Z,130.83
2019-03-01T08:02:46.723Z,110.10
2019-03-01T08:05:17.983Z,117.60
2019-03-01T08:07:56.005Z,120.60
2019-03-01T08:10:22.402Z,124.00
2019-03-01T08:12:53.082Z,137.43
2019-03-01T08:15:24.557Z,109.27
2019-03-01T08:17:53.119Z,134.87
2019-03-01T08:20:21.793Z,113.60
2019-03-01T08:22:53.167Z,123.13
2019-03-01T08:25:24.778Z,107.10
2019-03-01T08:27:53.371Z,128.53
2019-03-01T08:30:24.651Z,162.80
2019-03-01T08:32:56.607Z,108.70
2019-03-01T08:35:31.006Z,106.90
2019-03-01T08:38:01.195Z,85.47
2019-03-01T08:40:29.776Z,96.70
2019-03-01T08:43:01.340Z,90.60
2019-03-01T08:45:33.716Z,82.47
2019-03-01T08:48:03.117Z,103.00
2019-03-01T08:50:34.453Z,93.97
2019-03-01T08:53:06.236Z,105.87
2019-03-01T08:55:35.610Z,99.47
2019-03-01T08:58:09.610Z,105.80
2019-03-01T09:00:43.719Z,112.07
2019-03-01T09:03:30.485Z,99.80
2019-03-01T09:05:59.033Z,104.77
2019-03-01T09:08:30.340Z,119.77
2019-03-01T09:10:59.557Z,103.93
2019-03-01T09:13:31.131Z,139.37
2019-03-01T09:15:59.757Z,123.23
2019-03-01T09:18:31.323Z,122.70
2019-03-01T09:21:05.645Z,131.57
2019-03-01T09:23:30.202Z,111.07
2019-03-01T09:25:58.781Z,116.90
2019-03-01T09:28:32.815Z,122.53
2019-03-01T09:31:03.741Z,142.00
2019-03-01T09:33:35.335Z,119.47
2019-03-01T09:36:10.950Z,109.83
2019-03-01T09:38:42.892Z,98.47
2019-03-01T09:41:12.255Z,91.27
2019-03-01T09:43:43.850Z,92.47
2019-03-01T09:46:12.458Z,96.73
2019-03-01T09:48:41.186Z,92.50
2019-03-01T09:51:12.807Z,88.67
2019-03-01T09:53:44.161Z,83.97
2019-03-01T09:56:15.557Z,76.60
2019-03-01T09:58:47.033Z,82.07
2019-03-01T10:01:18.160Z,98.27
2019-03-01T10:03:47.148Z,66.13
2019-03-01T10:06:18.711Z,98.40
2019-03-01T10:08:50.273Z,80.27
2019-03-01T10:11:21.893Z,82.13
2019-03-01T10:13:53.352Z,88.13
2019-03-01T10:16:21.938Z,84.83
2019-03-01T10:18:53.212Z,92.30
2019-03-01T10:21:21.889Z,84.27
2019-03-01T10:23:53.577Z,102.50
2019-03-01T10:26:22.329Z,85.90
2019-03-01T10:28:50.891Z,87.50
2019-03-01T10:31:22.455Z,85.13
2019-03-01T10:33:51.015Z,96.93
2019-03-01T10:36:19.610Z,93.30
2019-03-01T10:38:51.032Z,83.63
2019-03-01T10:41:19.602Z,85.00
2019-03-01T10:43:50.888Z,107.20
2019-03-01T10:46:22.394Z,83.53
2019-03-01T10:48:51.982Z,75.63
2019-03-01T10:51:23.213Z,74.90
2019-03-01T10:53:54.759Z,103.23
2019-03-01T10:56:27.408Z,92.23
2019-03-01T10:58:58.903Z,91.00
2019-03-01T11:01:30.480Z,92.30
2019-03-01T11:04:02.239Z,109.60
2019-03-01T11:06:30.823Z,91.33
2019-03-01T11:09:02.080Z,94.40
2019-03-01T11:11:30.649Z,89.27
2019-03-01T11:14:01.875Z,102.40
2019-03-01T11:16:33.134Z,109.60
2019-03-01T11:19:04.596Z,108.17
2019-03-01T11:21:35.949Z,131.73
2019-03-01T11:24:09.269Z,134.00
2019-03-01T11:26:37.859Z,130.97
2019-03-01T11:29:09.658Z,107.50
2019-03-01T11:31:41.190Z,130.63
2019-03-01T11:34:12.662Z,128.60
2019-03-01T11:36:41.251Z,112.37
2019-03-01T11:39:14.102Z,128.43
2019-03-01T11:41:42.684Z,131.73
2019-03-01T11:44:14.259Z,99.87
2019-03-01T11:46:43.160Z,130.40
2019-03-01T11:49:12.121Z,104.07
2019-03-01T11:51:43.361Z,127.60
2019-03-01T11:54:14.954Z,147.63
2019-03-01T11:56:46.254Z,113.97
2019-03-01T11:59:14.837Z,113.10
2019-03-01T12:01:46.125Z,100.03
2019-03-01T12:04:15.246Z,132.47
2019-03-01T12:06:46.921Z,109.77
2019-03-01T12:09:18.238Z,116.33
2019-03-01T12:11:49.525Z,115.57
2019-03-01T12:14:22.312Z,123.97
2019-03-01T12:16:51.124Z,134.27
2019-03-01T12:19:22.701Z,125.33
2019-03-01T12:21:51.317Z,136.10
2019-03-01T12:24:22.885Z,136.27
2019-03-01T12:26:51.431Z,134.10
2019-03-01T12:29:23.244Z,135.43
2019-03-01T12:31:54.470Z,123.80
2019-03-01T12:34:25.762Z,139.97
2019-03-01T12:36:57.427Z,136.47
2019-03-01T12:39:28.707Z,126.23
2019-03-01T12:41:57.599Z,139.93
2019-03-01T12:44:29.283Z,153.63
2019-03-01T12:47:00.771Z,155.87
2019-03-01T12:49:29.355Z,136.43
2019-03-01T12:52:00.890Z,140.77
2019-03-01T12:54:32.199Z,135.90
2019-03-01T12:57:04.423Z,147.43
2019-03-01T12:59:37.809Z,122.23
2019-03-01T13:02:09.251Z,125.47
2019-03-01T13:04:40.832Z,139.03
2019-03-01T13:07:10.570Z,138.70
2019-03-01T13:09:42.772Z,131.80
2019-03-01T13:12:11.328Z,118.40
2019-03-01T13:14:43.071Z,111.33
2019-03-01T13:17:11.683Z,153.07
2019-03-01T13:19:43.092Z,134.53
2019-03-01T13:22:11.675Z,117.07
2019-03-01T13:24:40.666Z,121.97
2019-03-01T13:27:17.057Z,138.33
2019-03-01T13:29:47.455Z,118.07
2019-03-01T13:32:19.973Z,114.33
2019-03-01T13:34:50.455Z,114.23
2019-03-01T13:37:20.367Z,121.27
2019-03-01T13:39:52.322Z,113.93
2019-03-01T13:42:24.128Z,96.27
2019-03-01T13:44:52.705Z,94.23
2019-03-01T13:47:23.925Z,88.30
2019-03-01T13:49:52.536Z,90.43
2019-03-01T13:52:26.682Z,120.60
2019-03-01T13:54:54.220Z,96.93
2019-03-01T13:57:22.776Z,90.47
2019-03-01T13:59:51.403Z,82.43
2019-03-01T14:02:22.985Z,112.57
2019-03-01T14:04:54.526Z,100.30
2019-03-01T14:07:25.992Z,88.30
2019-03-01T14:09:57.311Z,83.53
2019-03-01T14:12:25.893Z,77.30
2019-03-01T14:14:59.347Z,83.37
2019-03-01T14:17:27.480Z,68.57
2019-03-01T14:19:56.497Z,69.13
2019-03-01T14:22:27.888Z,73.83
2019-03-01T14:24:56.621Z,64.83
2019-03-01T14:27:29.579Z,63.27
2019-03-01T14:29:58.491Z,73.30
2019-03-01T14:32:27.074Z,55.93
2019-03-01T14:34:56.000Z,63.17
2019-03-01T14:37:24.562Z,56.60
2019-03-01T14:39:56.051Z,46.07
2019-03-01T14:42:24.927Z,39.30
2019-03-01T14:44:53.885Z,43.30
2019-03-01T14:47:25.270Z,42.23
2019-03-01T14:49:57.626Z,40.10
2019-03-01T14:52:24.309Z,37.43
2019-03-01T14:54:52.887Z,34.37
2019-03-01T14:57:26.323Z,30.70
2019-03-01T15:00:01.272Z,33.73
2019-03-01T15:02:47.512Z,30.87
2019-03-01T15:05:19.592Z,37.53
2019-03-01T15:07:46.439Z,27.83
2019-03-01T15:10:15.315Z,33.83
2019-03-01T15:12:43.883Z,32.90
2019-03-01T15:15:13.898Z,40.93
2019-03-01T15:17:45.431Z,35.73
2019-03-01T15:20:17.237Z,23.30
2019-03-01T15:22:49.665Z,25.53
2019-03-01T15:25:18.380Z,28.77
2019-03-01T15:27:50.001Z,23.77
2019-03-01T15:30:23.192Z,28.43
2019-03-01T15:32:52.594Z,21.37
2019-03-01T15:35:24.178Z,26.93
2019-03-01T15:37:52.741Z,20.03
2019-03-01T15:40:21.372Z,23.43
2019-03-01T15:42:54.681Z,20.23
2019-03-01T15:45:26.291Z,22.50
2019-03-01T15:47:55.267Z,21.40
2019-03-01T15:50:27.364Z,23.83
2019-03-01T15:52:57.842Z,24.00
2019-03-01T15:55:26.391Z,21.90
2019-03-01T15:57:58.054Z,15.07
2019-03-01T16:00:29.618Z,16.70
2019-03-01T16:02:57.029Z,21.17
2019-03-01T16:05:28.892Z,24.70
2019-03-01T16:07:57.567Z,18.30
2019-03-01T16:10:28.929Z,22.07
2019-03-01T16:13:00.411Z,24.67
2019-03-01T16:15:28.970Z,20.90
2019-03-01T16:18:00.934Z,14.77
2019-03-01T16:20:28.525Z,15.03
2019-03-01T16:22:57.839Z,14.90
2019-03-01T16:25:26.392Z,14.77
2019-03-01T16:27:57.932Z,11.13
2019-03-01T16:30:29.541Z,14.70
2019-03-01T16:33:01.034Z,16.43
2019-03-01T16:35:32.312Z,13.47
2019-03-01T16:38:04.684Z,10.23
2019-03-01T16:40:36.270Z,12.80
2019-03-01T16:43:04.977Z,14.57
2019-03-01T16:45:38.806Z,13.20
2019-03-01T16:48:07.759Z,10.53
2019-03-01T16:50:37.090Z,10.80
2019-03-01T16:53:11.454Z,12.20
2019-03-01T16:55:42.819Z,21.30
2019-03-01T16:58:14.209Z,17.50
2019-03-01T17:00:45.915Z,14.13
2019-03-01T17:03:17.913Z,12.43
2019-03-01T17:05:49.739Z,13.63
2019-03-01T17:08:21.050Z,13.73
2019-03-01T17:10:52.410Z,15.33
2019-03-01T17:13:23.689Z,12.27
2019-03-01T17:15:54.195Z,11.17
2019-03-01T17:18:25.559Z,15.10
2019-03-01T17:20:57.102Z,10.17
2019-03-01T17:23:25.682Z,11.67
2019-03-01T17:25:56.984Z,8.90
2019-03-01T17:28:26.620Z,11.50
2019-03-01T17:30:58.548Z,10.83
2019-03-01T17:33:29.923Z,15.20
2019-03-01T17:36:01.298Z,13.93
2019-03-01T17:38:32.648Z,14.93
2019-03-01T17:41:01.301Z,14.37
2019-03-01T17:43:32.749Z,15.83
2019-03-01T17:46:00.534Z,17.37
2019-03-01T17:48:32.125Z,6.87
2019-03-01T17:51:01.371Z,14.70
2019-03-01T17:53:32.755Z,11.30
2019-03-01T17:56:01.297Z,12.63
2019-03-01T17:58:33.145Z,14.00
2019-03-01T18:01:04.536Z,20.47
2019-03-01T18:03:37.989Z,15.03
2019-03-01T18:06:09.350Z,12.03
2019-03-01T18:08:39.602Z,17.23
2019-03-01T18:11:12.620Z,10.70
2019-03-01T18:13:41.232Z,17.53
2019-03-01T18:16:09.839Z,9.60
2019-03-01T18:18:42.547Z,9.30
2019-03-01T18:21:13.183Z,13.90
2019-03-01T18:23:44.613Z,15.60
2019-03-01T18:26:13.140Z,13.13
2019-03-01T18:28:42.145Z,12.97
2019-03-01T18:31:10.786Z,12.43
2019-03-01T18:33:39.372Z,13.43
2019-03-01T18:36:10.748Z,12.87
2019-03-01T18:38:42.432Z,17.97
2019-03-01T18:41:11.214Z,12.50
2019-03-01T18:43:39.853Z,10.33
2019-03-01T18:46:08.683Z,16.63
2019-03-01T18:48:40.598Z,9.37
2019-03-01T18:51:10.838Z,13.97
2019-03-01T18:53:42.190Z,14.50
2019-03-01T18:56:11.006Z,11.93
2019-03-01T18:58:45.728Z,12.73
2019-03-01T19:01:15.827Z,17.60
2019-03-01T19:03:47.707Z,11.07
2019-03-01T19:06:17.218Z,13.30
2019-03-01T19:08:48.847Z,13.43
2019-03-01T19:11:20.127Z,15.37
2019-03-01T19:13:51.603Z,14.20
2019-03-01T19:16:25.343Z,11.07
2019-03-01T19:18:56.401Z,17.37
2019-03-01T19:21:27.877Z,11.77
2019-03-01T19:23:59.575Z,20.43
2019-03-01T19:26:33.762Z,12.73
2019-03-01T19:29:02.704Z,12.00
2019-03-01T19:31:34.820Z,12.33
2019-03-01T19:34:06.625Z,12.43
2019-03-01T19:36:39.764Z,18.33
2019-03-01T19:39:19.539Z,16.13
2019-03-01T19:41:54.554Z,10.40
2019-03-01T19:44:21.476Z,14.73
2019-03-01T19:46:53.265Z,12.13
2019-03-01T19:49:21.873Z,16.90
2019-03-01T19:51:52.969Z,16.27
2019-03-01T19:54:24.431Z,15.20
2019-03-01T19:56:53.044Z,14.43
2019-03-01T19:59:21.660Z,15.57
2019-03-01T20:01:52.568Z,15.63
2019-03-01T20:04:23.731Z,20.57
2019-03-01T20:06:52.345Z,18.70
2019-03-01T20:09:20.926Z,15.30
2019-03-01T20:11:49.575Z,12.97
2019-03-01T20:14:18.204Z,19.77
2019-03-01T20:16:47.212Z,17.83
2019-03-01T20:19:17.044Z,15.10
2019-03-01T20:21:50.613Z,14.07
2019-03-01T20:24:19.653Z,15.27
2019-03-01T20:26:51.369Z,15.90
2019-03-01T20:29:19.987Z,15.53
2019-03-01T20:31:51.393Z,13.03
2019-03-01T20:34:20.049Z,11.87
2019-03-01T20:36:49.586Z,13.90
2019-03-01T20:39:19.647Z,19.20
2019-03-01T20:41:48.538Z,15.53
2019-03-01T20:44:18.691Z,15.03
2019-03-01T20:46:47.861Z,14.90
2019-03-01T20:49:16.499Z,12.93
2019-03-01T20:51:45.073Z,12.77
2019-03-01T20:54:13.637Z,10.20
2019-03-01T20:56:42.253Z,17.80
2019-03-01T20:59:12.644Z,11.27
2019-03-01T21:01:41.228Z,10.00
2019-03-01T21:04:09.851Z,10.47
2019-03-01T21:06:41.507Z,8.97
2019-03-01T21:09:14.170Z,10.63
2019-03-01T21:11:44.423Z,8.03
2019-03-01T21:14:16.034Z,13.60
2019-03-01T21:16:47.719Z,8.67
2019-03-01T21:19:16.349Z,9.43
2019-03-01T21:21:44.965Z,14.00
2019-03-01T21:24:16.470Z,8.67
2019-03-01T21:26:51.234Z,11.20
2019-03-01T21:29:18.354Z,9.27
2019-03-01T21:31:47.419Z,10.37
2019-03-01T21:34:16.081Z,17.53
2019-03-01T21:36:44.699Z,12.70
2019-03-01T21:39:13.343Z,13.30
2019-03-01T21:41:44.773Z,11.00
2019-03-01T21:44:13.672Z,11.13
2019-03-01T21:46:43.267Z,9.47
2019-03-01T21:49:12.064Z,10.63
2019-03-01T21:51:41.109Z,12.30
2019-03-01T21:54:16.449Z,16.97
2019-03-01T21:56:55.611Z,13.40
2019-03-01T21:59:13.678Z,10.37
2019-03-01T22:01:43.786Z,11.27
2019-03-01T22:04:12.420Z,15.30
2019-03-01T22:06:44.216Z,10.73
2019-03-01T22:09:13.465Z,10.27
2019-03-01T22:11:42.086Z,18.03
2019-03-01T22:14:14.012Z,8.67
2019-03-01T22:16:41.480Z,17.50
2019-03-01T22:19:10.086Z,16.63
2019-03-01T22:21:38.712Z,8.80
2019-03-01T22:24:08.896Z,8.90
2019-03-01T22:26:37.732Z,14.80
2019-03-01T22:29:12.099Z,8.93
2019-03-01T22:31:39.809Z,13.00
2019-03-01T22:34:11.892Z,11.43
2019-03-01T22:36:40.499Z,10.67
2019-03-01T22:39:13.668Z,8.57
2019-03-01T22:41:43.925Z,13.03
2019-03-01T22:44:12.534Z,15.90
2019-03-01T22:46:43.830Z,12.30
2019-03-01T22:49:15.406Z,9.97
2019-03-01T22:51:49.648Z,10.20
2019-03-01T22:54:17.805Z,12.60
2019-03-01T22:56:48.443Z,12.13
2019-03-01T22:59:17.526Z,9.70
2019-03-01T23:01:49.615Z,8.27
2019-03-01T23:04:22.801Z,7.47
2019-03-01T23:06:54.429Z,9.07
2019-03-01T23:09:26.122Z,10.13
2019-03-01T23:11:55.157Z,8.37
2019-03-01T23:14:30.718Z,11.03
2019-03-01T23:16:58.649Z,9.33
2019-03-01T23:19:27.213Z,9.83
2019-03-01T23:21:58.839Z,18.77
2019-03-01T23:24:31.748Z,13.23
2019-03-01T23:27:00.565Z,9.27
2019-03-01T23:29:32.554Z,9.70
2019-03-01T23:32:01.097Z,15.03
2019-03-01T23:34:32.630Z,9.80
2019-03-01T23:37:03.578Z,10.53
2019-03-01T23:39:34.902Z,10.30
2019-03-01T23:42:06.401Z,8.37
2019-03-01T23:44:38.620Z,9.40
2019-03-01T23:47:10.096Z,9.60
2019-03-01T23:49:38.749Z,26.97
2019-03-01T23:52:07.539Z,12.53
2019-03-01T23:54:44.199Z,10.90
2019-03-01T23:57:15.053Z,10.07
2019-03-01T23:59:43.685Z,9.37
